createdAt,value
2018-03-02T00:00:29.080Z,73.35
2018-03-02T00:02:56.609Z,73.33
2018-03-02T00:05:24.133Z,73.43
2018-03-02T00:07:51.822Z,73.48
2018-03-02T00:10:19.387Z,73.10
2018-03-02T00:12:46.946Z,73.33
2018-03-02T00:15:14.602Z,73.45
2018-03-02T00:17:42.136Z,73.03
2018-03-02T00:20:09.716Z,73.40
2018-03-02T00:22:37.377Z,73.23
2018-03-02T00:25:05.008Z,73.56
2018-03-02T00:27:32.581Z,73.31
2018-03-02T00:30:00.220Z,73.35
2018-03-02T00:32:27.772Z,73.06
2018-03-02T00:34:55.304Z,72.67
2018-03-02T00:37:22.833Z,73.01
2018-03-02T00:39:50.365Z,72.60
2018-03-02T00:42:17.873Z,73.23
2018-03-02T00:44:45.386Z,72.73
2018-03-02T00:47:12.932Z,72.94
2018-03-02T00:49:40.500Z,73.30
2018-03-02T00:52:08.076Z,73.14
2018-03-02T00:54:35.837Z,73.25
2018-03-02T00:57:03.382Z,72.87
2018-03-02T00:59:30.916Z,73.17
2018-03-02T01:01:58.535Z,72.91
2018-03-02T01:04:26.066Z,73.37
2018-03-02T01:06:53.657Z,73.33
2018-03-02T01:09:21.223Z,72.95
2018-03-02T01:11:48.756Z,72.65
2018-03-02T01:14:16.265Z,72.86
2018-03-02T01:16:43.824Z,72.70
2018-03-02T01:19:11.324Z,73.23
2018-03-02T01:21:38.851Z,72.95
2018-03-02T01:24:06.381Z,73.38
2018-03-02T01:26:33.951Z,72.74
2018-03-02T01:29:01.605Z,72.89
2018-03-02T01:31:29.219Z,72.83
2018-03-02T01:33:56.746Z,73.05
2018-03-02T01:36:24.380Z,73.31
2018-03-02T01:38:51.953Z,73.28
2018-03-02T01:41:19.486Z,73.22
2018-03-02T01:43:47.017Z,72.97
2018-03-02T01:46:14.553Z,73.20
2018-03-02T01:48:42.078Z,73.37
2018-03-02T01:51:09.616Z,73.55
2018-03-02T01:53:37.294Z,73.42
2018-03-02T01:56:04.897Z,73.20
2018-03-02T01:58:32.464Z,73.19
2018-03-02T02:01:00.078Z,73.28
2018-03-02T02:03:27.650Z,73.21
2018-03-02T02:05:55.254Z,72.88
2018-03-02T02:08:22.846Z,73.12
2018-03-02T02:10:50.376Z,72.54
2018-03-02T02:13:17.903Z,73.24
2018-03-02T02:15:45.457Z,73.69
2018-03-02T02:18:12.974Z,72.99
2018-03-02T02:20:40.491Z,73.19
2018-03-02T02:23:08.053Z,73.61
2018-03-02T02:25:35.577Z,73.37
2018-03-02T02:28:03.109Z,73.64
2018-03-02T02:30:30.642Z,72.87
2018-03-02T02:32:58.171Z,73.35
2018-03-02T02:35:25.695Z,72.66
2018-03-02T02:37:53.253Z,73.44
2018-03-02T02:40:20.829Z,73.19
2018-03-02T02:42:48.310Z,73.54
2018-03-02T02:45:15.839Z,73.38
2018-03-02T02:47:43.370Z,73.67
2018-03-02T02:50:10.939Z,73.72
2018-03-02T02:52:38.482Z,73.38
2018-03-02T02:55:06.066Z,73.59
2018-03-02T02:57:33.593Z,73.56
2018-03-02T03:00:01.213Z,73.60
2018-03-02T03:02:28.778Z,73.25
2018-03-02T03:04:56.286Z,73.66
2018-03-02T03:07:23.813Z,72.53
2018-03-02T03:09:51.409Z,73.21
2018-03-02T03:12:18.962Z,73.49
2018-03-02T03:14:46.481Z,73.35
2018-03-02T03:17:14.077Z,72.96
2018-03-02T03:19:41.641Z,73.17
2018-03-02T03:22:09.160Z,73.39
2018-03-02T03:24:36.825Z,73.08
2018-03-02T03:27:04.342Z,72.82
2018-03-02T03:29:31.918Z,73.35
2018-03-02T03:31:59.458Z,72.63
2018-03-02T03:34:26.974Z,73.53
2018-03-02T03:36:54.487Z,73.35
2018-03-02T03:39:22.107Z,73.19
2018-03-02T03:41:49.678Z,73.52
2018-03-02T03:44:17.233Z,73.21
2018-03-02T03:46:44.774Z,73.09
2018-03-02T03:49:12.337Z,72.22
2018-03-02T03:51:39.881Z,72.95
2018-03-02T03:54:07.480Z,73.63
2018-03-02T03:56:35.025Z,73.50
2018-03-02T03:59:02.603Z,72.84
2018-03-02T04:01:30.189Z,73.41
2018-03-02T04:03:57.709Z,73.38
2018-03-02T04:06:25.245Z,73.14
2018-03-02T04:08:52.796Z,73.42
2018-03-02T04:11:20.312Z,73.42
2018-03-02T04:13:47.825Z,73.41
2018-03-02T04:16:15.383Z,72.23
2018-03-02T04:18:42.905Z,73.29
2018-03-02T04:21:10.417Z,73.29
2018-03-02T04:23:37.959Z,73.58
2018-03-02T04:26:05.562Z,73.21
2018-03-02T04:28:33.096Z,73.44
2018-03-02T04:31:00.672Z,73.43
2018-03-02T04:33:28.197Z,72.76
2018-03-02T04:35:55.705Z,73.04
2018-03-02T04:38:23.342Z,73.54
2018-03-02T04:40:50.862Z,73.48
2018-03-02T04:43:18.518Z,73.18
2018-03-02T04:45:46.092Z,73.54
2018-03-02T04:48:13.665Z,73.35
2018-03-02T04:50:41.201Z,73.54
2018-03-02T04:53:08.757Z,73.67
2018-03-02T04:55:36.293Z,73.71
2018-03-02T04:58:03.895Z,73.56
2018-03-02T05:00:31.489Z,73.53
2018-03-02T05:02:59.040Z,73.26
2018-03-02T05:05:26.674Z,73.14
2018-03-02T05:07:54.269Z,73.17
2018-03-02T05:10:21.838Z,81.30
2018-03-02T05:12:49.421Z,76.96
2018-03-02T05:15:17.023Z,76.30
2018-03-02T05:17:44.563Z,74.93
2018-03-02T05:20:12.191Z,74.66
2018-03-02T05:22:39.724Z,74.71
2018-03-02T05:25:07.255Z,86.51
2018-03-02T05:27:34.834Z,84.65
2018-03-02T05:30:02.452Z,86.74
2018-03-02T05:32:30.047Z,86.81
2018-03-02T05:34:57.565Z,84.83
2018-03-02T05:37:25.095Z,82.29
2018-03-02T05:39:52.669Z,79.09
2018-03-02T05:42:20.693Z,78.18
2018-03-02T05:44:48.301Z,77.96
2018-03-02T05:47:16.074Z,77.70
2018-03-02T05:49:43.616Z,76.90
2018-03-02T05:52:11.192Z,76.64
2018-03-02T05:54:38.728Z,76.05
2018-03-02T05:57:06.286Z,76.46
2018-03-02T05:59:33.886Z,76.03
2018-03-02T06:02:01.457Z,76.27
2018-03-02T06:04:28.989Z,76.14
2018-03-02T06:06:56.513Z,75.94
2018-03-02T06:09:24.050Z,75.87
2018-03-02T06:11:51.636Z,75.90
2018-03-02T06:14:19.149Z,76.07
2018-03-02T06:16:46.722Z,75.88
2018-03-02T06:19:14.287Z,75.75
2018-03-02T06:21:41.823Z,75.73
2018-03-02T06:24:09.645Z,75.69
2018-03-02T06:26:37.289Z,75.50
2018-03-02T06:29:04.819Z,75.92
2018-03-02T06:31:32.423Z,75.42
2018-03-02T06:33:59.995Z,75.58
2018-03-02T06:36:27.529Z,75.76
2018-03-02T06:38:55.202Z,75.68
2018-03-02T06:41:22.770Z,75.69
2018-03-02T06:43:50.328Z,75.59
2018-03-02T06:46:17.984Z,75.41
2018-03-02T06:48:45.575Z,75.32
2018-03-02T06:51:13.153Z,75.33
2018-03-02T06:53:40.725Z,74.95
2018-03-02T06:56:08.242Z,74.61
2018-03-02T06:58:35.937Z,74.56
2018-03-02T07:01:03.541Z,75.37
2018-03-02T07:03:31.061Z,74.92
2018-03-02T07:05:58.627Z,74.61
2018-03-02T07:08:26.287Z,74.50
2018-03-02T07:10:53.815Z,73.94
2018-03-02T07:13:21.474Z,74.14
2018-03-02T07:15:49.141Z,74.04
2018-03-02T07:18:16.661Z,74.20
2018-03-02T07:20:44.250Z,73.88
2018-03-02T07:23:11.789Z,74.87
2018-03-02T07:25:39.349Z,74.63
2018-03-02T07:28:06.978Z,74.90
2018-03-02T07:30:34.526Z,74.79
2018-03-02T07:33:02.106Z,74.25
2018-03-02T07:35:29.682Z,74.13
2018-03-02T07:37:57.281Z,73.79
2018-03-02T07:40:24.806Z,73.47
2018-03-02T07:42:52.428Z,73.29
2018-03-02T07:45:20.248Z,73.36
2018-03-02T07:47:48.067Z,72.68
2018-03-02T07:50:15.633Z,72.65
2018-03-02T07:52:43.244Z,73.05
2018-03-02T07:55:10.761Z,72.60
2018-03-02T07:57:38.305Z,73.12
2018-03-02T08:00:06.512Z,72.91
2018-03-02T08:02:34.052Z,73.15
2018-03-02T08:05:01.639Z,73.40
2018-03-02T08:07:29.226Z,73.49
2018-03-02T08:09:56.788Z,73.48
2018-03-02T08:12:24.324Z,72.94
2018-03-02T08:14:51.864Z,72.96
2018-03-02T08:17:19.457Z,72.77
2018-03-02T08:19:47.047Z,72.44
2018-03-02T08:22:14.610Z,72.53
2018-03-02T08:24:42.169Z,71.83
2018-03-02T08:27:09.695Z,71.77
2018-03-02T08:29:37.268Z,71.08
2018-03-02T08:32:04.818Z,70.95
2018-03-02T08:34:32.356Z,70.76
2018-03-02T08:36:59.889Z,70.57
2018-03-02T08:39:27.608Z,71.15
2018-03-02T08:41:55.233Z,70.78
2018-03-02T08:44:22.787Z,71.34
2018-03-02T08:46:50.408Z,70.48
2018-03-02T08:49:17.924Z,70.24
2018-03-02T08:51:45.506Z,70.33
2018-03-02T08:54:13.131Z,70.22
2018-03-02T08:56:40.710Z,70.27
2018-03-02T08:59:08.229Z,69.04
2018-03-02T09:01:35.805Z,69.63
2018-03-02T09:04:03.336Z,69.08
2018-03-02T09:06:30.912Z,69.76
2018-03-02T09:08:58.485Z,69.77
2018-03-02T09:11:26.068Z,69.96
2018-03-02T09:13:53.624Z,69.37
2018-03-02T09:16:21.206Z,68.73
2018-03-02T09:18:48.756Z,69.49
2018-03-02T09:21:16.316Z,70.04
2018-03-02T09:23:43.855Z,70.57
2018-03-02T09:26:11.433Z,69.90
2018-03-02T09:28:38.965Z,69.16
2018-03-02T09:31:06.563Z,69.46
2018-03-02T09:33:34.144Z,68.73
2018-03-02T09:36:01.709Z,68.21
2018-03-02T09:38:29.338Z,67.36
2018-03-02T09:40:56.865Z,67.08
2018-03-02T09:43:24.406Z,65.59
2018-03-02T09:45:51.973Z,65.42
2018-03-02T09:48:19.590Z,64.28
2018-03-02T09:50:47.207Z,63.80
2018-03-02T09:53:14.810Z,62.84
2018-03-02T09:55:42.370Z,62.38
2018-03-02T09:58:09.932Z,62.67
2018-03-02T10:00:37.504Z,60.52
2018-03-02T10:03:05.231Z,59.71
2018-03-02T10:05:32.825Z,61.07
2018-03-02T10:08:00.433Z,60.37
2018-03-02T10:10:28.036Z,60.51
2018-03-02T10:12:56.432Z,59.52
2018-03-02T10:15:24.939Z,62.47
2018-03-02T10:17:52.834Z,60.30
2018-03-02T10:20:20.434Z,59.08
2018-03-02T10:22:48.027Z,59.80
2018-03-02T10:25:15.595Z,56.73
2018-03-02T10:27:43.117Z,54.91
2018-03-02T10:30:10.770Z,56.15
2018-03-02T10:32:38.311Z,55.99
2018-03-02T10:35:05.839Z,58.22
2018-03-02T10:37:33.393Z,55.19
2018-03-02T10:40:01.089Z,56.82
2018-03-02T10:42:28.722Z,56.80
2018-03-02T10:44:56.377Z,58.09
2018-03-02T10:47:23.935Z,57.44
2018-03-02T10:49:51.508Z,57.02
2018-03-02T10:52:19.133Z,57.77
2018-03-02T10:54:46.671Z,58.00
2018-03-02T10:57:14.193Z,56.59
2018-03-02T10:59:41.809Z,57.84
2018-03-02T11:02:14.965Z,60.25
2018-03-02T11:04:47.405Z,59.15
2018-03-02T11:07:15.077Z,60.51
2018-03-02T11:09:42.796Z,61.68
2018-03-02T11:12:10.349Z,61.95
2018-03-02T11:14:37.938Z,62.02
2018-03-02T11:17:05.498Z,62.03
2018-03-02T11:19:33.058Z,62.44
2018-03-02T11:22:00.602Z,61.79
2018-03-02T11:24:28.181Z,61.21
2018-03-02T11:26:55.748Z,61.88
2018-03-02T11:29:23.334Z,61.07
2018-03-02T11:31:50.918Z,61.86
2018-03-02T11:34:18.525Z,61.47
2018-03-02T11:36:46.108Z,62.07
2018-03-02T11:39:13.717Z,60.00
2018-03-02T11:41:41.256Z,61.75
2018-03-02T11:44:08.800Z,59.42
2018-03-02T11:46:36.333Z,63.15
2018-03-02T11:49:03.935Z,60.95
2018-03-02T11:51:31.526Z,60.64
2018-03-02T11:53:59.116Z,61.24
2018-03-02T11:56:26.694Z,59.95
2018-03-02T11:58:54.336Z,60.95
2018-03-02T12:01:21.977Z,64.64
2018-03-02T12:03:49.503Z,62.47
2018-03-02T12:06:17.082Z,62.66
2018-03-02T12:08:44.630Z,60.82
2018-03-02T12:11:12.214Z,63.42
2018-03-02T12:13:39.778Z,63.90
2018-03-02T12:16:07.336Z,64.74
2018-03-02T12:18:34.965Z,62.40
2018-03-02T12:21:03.125Z,64.06
2018-03-02T12:23:30.665Z,62.68
2018-03-02T12:25:58.281Z,62.02
2018-03-02T12:28:26.767Z,61.17
2018-03-02T12:30:55.372Z,65.02
2018-03-02T12:33:22.937Z,63.97
2018-03-02T12:35:50.490Z,63.26
2018-03-02T12:38:18.198Z,64.50
2018-03-02T12:40:45.784Z,61.11
2018-03-02T12:43:13.414Z,64.15
2018-03-02T12:45:41.095Z,63.49
2018-03-02T12:48:08.719Z,62.01
2018-03-02T12:50:36.313Z,62.50
2018-03-02T12:53:03.887Z,63.63
2018-03-02T12:55:31.542Z,64.73
2018-03-02T12:57:59.235Z,63.98
2018-03-02T13:00:26.797Z,63.01
2018-03-02T13:02:54.578Z,64.46
2018-03-02T13:05:22.171Z,62.88
2018-03-02T13:07:50.004Z,62.41
2018-03-02T13:10:17.894Z,65.43
2018-03-02T13:12:45.479Z,65.01
2018-03-02T13:15:13.052Z,64.45
2018-03-02T13:17:40.610Z,66.81
2018-03-02T13:20:08.573Z,66.10
2018-03-02T13:22:41.321Z,67.51
2018-03-02T13:25:08.886Z,66.15
2018-03-02T13:27:48.277Z,68.26
2018-03-02T13:30:16.852Z,68.90
2018-03-02T13:33:05.098Z,69.32
2018-03-02T13:35:32.677Z,67.30
2018-03-02T13:38:00.260Z,69.22
2018-03-02T13:40:39.473Z,68.71
2018-03-02T13:43:07.031Z,67.20
2018-03-02T13:45:34.569Z,68.44
2018-03-02T13:48:31.890Z,69.89
2018-03-02T13:50:59.424Z,70.58
2018-03-02T13:53:27.901Z,70.88
2018-03-02T13:55:55.533Z,71.19
2018-03-02T13:58:23.074Z,71.60
2018-03-02T14:00:50.660Z,71.03
2018-03-02T14:03:29.830Z,73.44
2018-03-02T14:05:57.429Z,73.45
2018-03-02T14:08:25.774Z,73.71
2018-03-02T14:10:53.551Z,74.22
2018-03-02T14:13:21.205Z,72.60
2018-03-02T14:15:48.743Z,73.76
2018-03-02T14:18:16.300Z,74.48
2018-03-02T14:20:43.902Z,74.22
2018-03-02T14:23:11.454Z,74.22
2018-03-02T14:25:39.153Z,73.53
2018-03-02T14:28:07.694Z,74.52
2018-03-02T14:30:35.273Z,75.12
2018-03-02T14:33:03.765Z,74.75
2018-03-02T14:35:31.310Z,75.29
2018-03-02T14:37:58.933Z,75.13
2018-03-02T14:40:26.496Z,74.82
2018-03-02T14:42:54.096Z,74.50
2018-03-02T14:45:21.665Z,74.25
2018-03-02T14:47:49.200Z,74.49
2018-03-02T14:50:16.842Z,74.79
2018-03-02T14:52:44.420Z,74.86
2018-03-02T14:55:11.968Z,74.53
2018-03-02T14:57:39.628Z,74.40
2018-03-02T15:00:08.339Z,74.28
2018-03-02T15:02:35.897Z,74.55
2018-03-02T15:05:03.429Z,74.35
2018-03-02T15:07:30.994Z,75.40
2018-03-02T15:09:58.549Z,74.53
2018-03-02T15:12:26.356Z,74.84
2018-03-02T15:14:54.007Z,74.82
2018-03-02T15:17:21.605Z,74.97
2018-03-02T15:19:49.188Z,74.74
2018-03-02T15:22:16.760Z,74.77
2018-03-02T15:24:44.342Z,76.58
2018-03-02T15:27:11.913Z,75.60
2018-03-02T15:29:39.490Z,75.62
2018-03-02T15:32:07.102Z,76.02
2018-03-02T15:34:34.621Z,75.56
2018-03-02T15:37:02.154Z,75.75
2018-03-02T15:39:29.712Z,75.66
2018-03-02T15:41:57.303Z,75.49
2018-03-02T15:44:24.889Z,68.72
2018-03-02T15:46:52.447Z,67.35
2018-03-02T15:49:20.054Z,66.27
2018-03-02T15:51:47.657Z,66.00
2018-03-02T15:54:15.298Z,65.78
2018-03-02T15:56:42.894Z,65.50
2018-03-02T15:59:10.526Z,65.30
2018-03-02T16:01:38.254Z,65.85
2018-03-02T16:04:05.893Z,65.48
2018-03-02T16:06:33.463Z,65.37
2018-03-02T16:09:01.122Z,65.00
2018-03-02T16:11:28.706Z,65.73
2018-03-02T16:13:56.280Z,65.83
2018-03-02T16:16:23.895Z,65.30
2018-03-02T16:18:51.547Z,65.25
2018-03-02T16:21:19.173Z,65.07
2018-03-02T16:23:46.759Z,65.80
2018-03-02T16:26:14.329Z,65.50
2018-03-02T16:28:41.896Z,65.54
2018-03-02T16:31:09.594Z,65.86
2018-03-02T16:33:37.175Z,65.25
2018-03-02T16:36:04.746Z,65.84
2018-03-02T16:38:32.375Z,65.75
2018-03-02T16:40:59.984Z,66.54
2018-03-02T16:43:27.588Z,66.21
2018-03-02T16:45:55.207Z,67.83
2018-03-02T16:48:22.779Z,67.62
2018-03-02T16:50:50.376Z,66.26
2018-03-02T16:53:17.982Z,66.70
2018-03-02T16:55:45.534Z,67.71
2018-03-02T16:58:13.146Z,65.84
2018-03-02T17:00:40.753Z,65.28
2018-03-02T17:03:08.341Z,66.20
2018-03-02T17:05:36.010Z,65.76
2018-03-02T17:08:03.620Z,65.56
2018-03-02T17:10:31.217Z,65.38
2018-03-02T17:12:58.784Z,64.91
2018-03-02T17:15:26.377Z,65.30
2018-03-02T17:17:53.971Z,66.38
2018-03-02T17:20:21.600Z,65.12
2018-03-02T17:22:49.204Z,65.35
2018-03-02T17:25:17.787Z,65.82
2018-03-02T17:27:45.381Z,68.31
2018-03-02T17:30:13.044Z,66.11
2018-03-02T17:32:40.652Z,66.99
2018-03-02T17:35:08.325Z,66.65
2018-03-02T17:37:35.908Z,67.81
2018-03-02T17:40:03.515Z,67.74
2018-03-02T17:42:31.106Z,66.76
2018-03-02T17:44:58.747Z,68.20
2018-03-02T17:47:26.415Z,76.76
2018-03-02T17:49:53.986Z,75.50
2018-03-02T17:52:21.593Z,75.41
2018-03-02T17:54:49.187Z,74.92
2018-03-02T17:57:17.017Z,74.63
2018-03-02T17:59:44.642Z,74.69
2018-03-02T18:02:12.209Z,75.29
2018-03-02T18:04:40.467Z,74.85
2018-03-02T18:07:08.023Z,75.94
2018-03-02T18:09:35.599Z,75.59
2018-03-02T18:12:03.192Z,75.64
2018-03-02T18:14:30.762Z,76.37
2018-03-02T18:16:58.347Z,75.49
2018-03-02T18:19:25.910Z,76.24
2018-03-02T18:21:53.491Z,75.47
2018-03-02T18:24:21.056Z,76.21
2018-03-02T18:26:48.589Z,75.51
2018-03-02T18:29:16.267Z,76.88
2018-03-02T18:31:43.834Z,77.36
2018-03-02T18:34:11.447Z,76.81
2018-03-02T18:36:39.557Z,76.51
2018-03-02T18:39:07.149Z,76.24
2018-03-02T18:41:34.712Z,77.07
2018-03-02T18:44:02.297Z,75.69
2018-03-02T18:46:29.868Z,75.99
2018-03-02T18:48:57.473Z,76.62
2018-03-02T18:51:25.084Z,76.84
2018-03-02T18:53:53.489Z,77.67
2018-03-02T18:56:22.189Z,75.81
2018-03-02T18:58:49.737Z,77.11
2018-03-02T19:01:17.451Z,82.52
2018-03-02T19:03:45.008Z,82.29
2018-03-02T19:06:12.758Z,79.92
2018-03-02T19:08:40.330Z,79.17
2018-03-02T19:11:07.963Z,77.83
2018-03-02T19:13:35.549Z,77.19
2018-03-02T19:16:03.108Z,76.36
2018-03-02T19:18:30.684Z,77.12
2018-03-02T19:20:58.597Z,76.98
2018-03-02T19:23:26.287Z,75.74
2018-03-02T19:25:53.896Z,77.05
2018-03-02T19:28:21.539Z,77.47
2018-03-02T19:30:49.229Z,76.67
2018-03-02T19:33:17.786Z,76.86
2018-03-02T19:35:45.486Z,76.09
2018-03-02T19:38:13.191Z,76.25
2018-03-02T19:40:40.914Z,75.83
2018-03-02T19:43:08.911Z,76.28
2018-03-02T19:45:36.610Z,75.46
2018-03-02T19:48:04.270Z,75.50
2018-03-02T19:50:31.985Z,76.59
2018-03-02T19:52:59.647Z,76.38
2018-03-02T19:55:28.080Z,75.98
2018-03-02T19:57:55.742Z,75.36
2018-03-02T20:00:23.396Z,76.02
2018-03-02T20:02:51.029Z,74.64
2018-03-02T20:05:18.677Z,76.11
2018-03-02T20:07:46.510Z,75.58
2018-03-02T20:10:14.102Z,75.04
2018-03-02T20:12:41.700Z,75.88
2018-03-02T20:15:09.331Z,76.78
2018-03-02T20:17:36.918Z,75.82
2018-03-02T20:20:04.537Z,75.69
2018-03-02T20:22:32.175Z,75.27
2018-03-02T20:24:59.753Z,74.94
2018-03-02T20:27:27.400Z,75.42
2018-03-02T20:29:55.065Z,75.73
2018-03-02T20:32:22.737Z,75.74
2018-03-02T20:34:50.334Z,74.67
2018-03-02T20:37:17.945Z,75.11
2018-03-02T20:39:45.574Z,76.00
2018-03-02T20:42:13.165Z,75.93
2018-03-02T20:44:40.727Z,76.12
2018-03-02T20:47:08.283Z,76.51
2018-03-02T20:49:35.847Z,75.97
2018-03-02T20:52:03.425Z,75.69
2018-03-02T20:54:31.029Z,75.55
2018-03-02T20:56:58.599Z,75.75
2018-03-02T20:59:26.176Z,75.49
2018-03-02T21:01:53.737Z,74.64
2018-03-02T21:04:21.300Z,75.55
2018-03-02T21:06:48.952Z,76.47
2018-03-02T21:09:16.617Z,75.37
2018-03-02T21:11:44.174Z,76.18
2018-03-02T21:14:11.684Z,76.03
2018-03-02T21:16:40.006Z,75.89
2018-03-02T21:19:07.537Z,76.18
2018-03-02T21:21:35.052Z,75.65
2018-03-02T21:24:02.585Z,75.69
2018-03-02T21:26:30.180Z,75.59
2018-03-02T21:28:57.882Z,75.98
2018-03-02T21:31:25.425Z,74.41
2018-03-02T21:33:53.058Z,75.86
2018-03-02T21:36:20.812Z,75.52
2018-03-02T21:38:48.393Z,75.75
2018-03-02T21:41:15.940Z,76.13
2018-03-02T21:43:43.525Z,75.95
2018-03-02T21:46:11.017Z,75.70
2018-03-02T21:48:38.552Z,76.10
2018-03-02T21:51:06.124Z,74.72
2018-03-02T21:53:33.661Z,76.07
2018-03-02T21:56:01.173Z,75.09
2018-03-02T21:58:28.731Z,75.92
2018-03-02T22:00:56.296Z,74.60
2018-03-02T22:03:23.863Z,75.74
2018-03-02T22:05:51.381Z,75.75
2018-03-02T22:08:19.057Z,76.43
2018-03-02T22:10:46.634Z,76.38
2018-03-02T22:13:14.162Z,75.55
2018-03-02T22:15:41.766Z,75.44
2018-03-02T22:18:09.302Z,76.37
2018-03-02T22:20:36.813Z,75.79
2018-03-02T22:23:04.397Z,76.42
2018-03-02T22:25:32.076Z,76.29
2018-03-02T22:27:59.660Z,76.73
2018-03-02T22:30:27.274Z,75.59
2018-03-02T22:32:54.791Z,76.39
2018-03-02T22:35:22.372Z,76.58
2018-03-02T22:37:49.927Z,76.57
2018-03-02T22:40:17.465Z,74.67
2018-03-02T22:42:45.010Z,75.97
2018-03-02T22:45:12.551Z,75.21
2018-03-02T22:47:40.107Z,76.26
2018-03-02T22:50:07.632Z,76.09
2018-03-02T22:52:35.184Z,75.79
2018-03-02T22:55:02.776Z,75.85
2018-03-02T22:57:30.312Z,76.27
2018-03-02T22:59:57.905Z,76.26
2018-03-02T23:02:25.458Z,75.42
2018-03-02T23:04:53.099Z,75.20
2018-03-02T23:07:20.770Z,76.42
2018-03-02T23:09:48.388Z,76.41
2018-03-02T23:12:15.926Z,76.54
2018-03-02T23:14:43.476Z,75.35
2018-03-02T23:17:11.201Z,76.54
2018-03-02T23:19:38.731Z,76.00
2018-03-02T23:22:06.271Z,76.01
2018-03-02T23:24:33.824Z,75.83
2018-03-02T23:27:01.538Z,75.93
2018-03-02T23:29:29.115Z,76.91
2018-03-02T23:31:56.902Z,76.34
2018-03-02T23:34:24.541Z,76.19
2018-03-02T23:36:52.052Z,76.58
2018-03-02T23:39:19.602Z,76.41
2018-03-02T23:41:47.155Z,75.38
2018-03-02T23:44:14.788Z,76.17
2018-03-02T23:46:42.373Z,76.35
2018-03-02T23:49:09.936Z,76.02
2018-03-02T23:51:37.448Z,76.67
2018-03-02T23:54:05.010Z,76.26
2018-03-02T23:56:32.547Z,75.36
2018-03-02T23:59:00.093Z,76.80
